sensor_id;sensor_type;location;lat;lon;timestamp;pressure;altitude;pressure_sealevel;temperature;humidity
47104;BME280;32853;52.164;5.400;2024-03-02T00:03:13;99682.22;;;11.05;92.98
47104;BME280;32853;52.164;5.400;2024-03-02T00:05:41;99694.66;;;11.01;93.75
47104;BME280;32853;52.164;5.400;2024-03-02T00:10:42;99692.03;;;11.01;93.82
47104;BME280;32853;52.164;5.400;2024-03-02T00:13:08;99685.38;;;10.96;94.35
47104;BME280;32853;52.164;5.400;2024-03-02T00:15:46;99700.63;;;11.18;91.40
47104;BME280;32853;52.164;5.400;2024-03-02T00:18:13;99693.72;;;11.17;92.45
47104;BME280;32853;52.164;5.400;2024-03-02T00:20:39;99706.72;;;11.32;90.96
47104;BME280;32853;52.164;5.400;2024-03-02T00:23:08;99714.75;;;11.29;91.08
47104;BME280;32853;52.164;5.400;2024-03-02T00:25:43;99715.88;;;11.11;92.06
47104;BME280;32853;52.164;5.400;2024-03-02T00:28:22;99724.09;;;11.05;92.47
47104;BME280;32853;52.164;5.400;2024-03-02T00:33:40;99744.88;;;11.37;90.37
47104;BME280;32853;52.164;5.400;2024-03-02T00:36:12;99753.66;;;11.35;89.37
47104;BME280;32853;52.164;5.400;2024-03-02T00:38:46;99752.53;;;11.40;90.18
47104;BME280;32853;52.164;5.400;2024-03-02T00:41:24;99765.50;;;11.13;92.03
47104;BME280;32853;52.164;5.400;2024-03-02T00:44:02;99769.56;;;11.32;91.46
47104;BME280;32853;52.164;5.400;2024-03-02T00:46:35;99787.47;;;11.24;93.90
47104;BME280;32853;52.164;5.400;2024-03-02T00:49:02;99780.97;;;11.31;94.80
47104;BME280;32853;52.164;5.400;2024-03-02T00:51:30;99782.22;;;11.10;98.11
47104;BME280;32853;52.164;5.400;2024-03-02T00:53:57;99785.09;;;11.05;98.61
47104;BME280;32853;52.164;5.400;2024-03-02T00:56:24;99780.81;;;11.04;100.00
47104;BME280;32853;52.164;5.400;2024-03-02T00:58:51;99791.91;;;11.08;100.00
47104;BME280;32853;52.164;5.400;2024-03-02T01:01:16;99787.81;;;11.04;100.00
47104;BME280;32853;52.164;5.400;2024-03-02T01:03:42;99795.78;;;11.17;100.00
47104;BME280;32853;52.164;5.400;2024-03-02T01:09:06;99808.75;;;11.04;100.00
47104;BME280;32853;52.164;5.400;2024-03-02T01:11:32;99803.47;;;11.20;100.00
47104;BME280;32853;52.164;5.400;2024-03-02T01:13:57;99800.78;;;11.05;100.00
47104;BME280;32853;52.164;5.400;2024-03-02T01:16:39;99812.03;;;10.77;100.00
47104;BME280;32853;52.164;5.400;2024-03-02T01:19:04;99799.28;;;10.87;100.00
47104;BME280;32853;52.164;5.400;2024-03-02T01:21:30;99786.38;;;10.68;100.00
47104;BME280;32853;52.164;5.400;2024-03-02T01:23:55;99781.34;;;10.65;100.00
47104;BME280;32853;52.164;5.400;2024-03-02T01:26:20;99800.63;;;10.79;100.00
47104;BME280;32853;52.164;5.400;2024-03-02T01:28:45;99806.97;;;10.59;100.00
47104;BME280;32853;52.164;5.400;2024-03-02T01:31:11;99814.75;;;10.60;100.00
47104;BME280;32853;52.164;5.400;2024-03-02T01:33:36;99812.41;;;10.56;100.00
47104;BME280;32853;52.164;5.400;2024-03-02T01:36:01;99812.63;;;10.51;100.00
47104;BME280;32853;52.164;5.400;2024-03-02T01:38:29;99811.66;;;10.54;100.00
47104;BME280;32853;52.164;5.400;2024-03-02T01:40:54;99813.41;;;10.37;100.00
47104;BME280;32853;52.164;5.400;2024-03-02T01:43:21;99812.81;;;10.48;100.00
47104;BME280;32853;52.164;5.400;2024-03-02T01:45:46;99808.94;;;10.55;100.00
47104;BME280;32853;52.164;5.400;2024-03-02T01:48:12;99817.03;;;10.66;100.00
47104;BME280;32853;52.164;5.400;2024-03-02T01:50:40;99825.78;;;10.50;100.00
47104;BME280;32853;52.164;5.400;2024-03-02T01:53:05;99818.41;;;10.42;100.00
47104;BME280;32853;52.164;5.400;2024-03-02T01:55:32;99817.53;;;10.41;100.00
47104;BME280;32853;52.164;5.400;2024-03-02T01:57:59;99818.91;;;10.33;100.00
47104;BME280;32853;52.164;5.400;2024-03-02T02:00:25;99812.53;;;10.53;100.00
47104;BME280;32853;52.164;5.400;2024-03-02T02:02:51;99814.16;;;10.24;100.00
47104;BME280;32853;52.164;5.400;2024-03-02T02:05:17;99820.63;;;10.16;100.00
47104;BME280;32853;52.164;5.400;2024-03-02T02:07:42;99811.47;;;10.25;100.00
47104;BME280;32853;52.164;5.400;2024-03-02T02:10:09;99812.13;;;10.29;100.00
47104;BME280;32853;52.164;5.400;2024-03-02T02:12:34;99816.53;;;10.28;100.00
47104;BME280;32853;52.164;5.400;2024-03-02T02:15:04;99823.97;;;10.18;100.00
47104;BME280;32853;52.164;5.400;2024-03-02T02:17:30;99825.75;;;10.18;100.00
47104;BME280;32853;52.164;5.400;2024-03-02T02:19:55;99834.34;;;10.04;100.00
47104;BME280;32853;52.164;5.400;2024-03-02T02:22:23;99831.47;;;9.93;100.00
47104;BME280;32853;52.164;5.400;2024-03-02T02:24:48;99820.00;;;9.96;100.00
47104;BME280;32853;52.164;5.400;2024-03-02T02:29:45;99812.03;;;9.99;100.00
47104;BME280;32853;52.164;5.400;2024-03-02T02:32:10;99801.31;;;9.87;100.00
47104;BME280;32853;52.164;5.400;2024-03-02T02:34:35;99806.28;;;9.92;100.00
47104;BME280;32853;52.164;5.400;2024-03-02T02:37:00;99814.50;;;9.84;100.00
47104;BME280;32853;52.164;5.400;2024-03-02T02:39:26;99813.53;;;9.87;100.00
47104;BME280;32853;52.164;5.400;2024-03-02T02:41:51;99821.34;;;9.87;100.00
47104;BME280;32853;52.164;5.400;2024-03-02T02:44:17;99825.41;;;9.93;100.00
47104;BME280;32853;52.164;5.400;2024-03-02T02:49:16;99816.72;;;9.92;100.00
47104;BME280;32853;52.164;5.400;2024-03-02T02:51:42;99826.97;;;9.79;100.00
47104;BME280;32853;52.164;5.400;2024-03-02T02:54:07;99825.00;;;9.67;100.00
47104;BME280;32853;52.164;5.400;2024-03-02T02:56:32;99828.25;;;9.88;100.00
47104;BME280;32853;52.164;5.400;2024-03-02T02:59:03;99832.38;;;9.76;100.00
47104;BME280;32853;52.164;5.400;2024-03-02T03:01:32;99839.53;;;9.55;100.00
47104;BME280;32853;52.164;5.400;2024-03-02T03:03:58;99834.16;;;9.58;100.00
47104;BME280;32853;52.164;5.400;2024-03-02T03:06:23;99846.53;;;9.55;100.00
47104;BME280;32853;52.164;5.400;2024-03-02T03:08:50;99831.25;;;9.47;100.00
47104;BME280;32853;52.164;5.400;2024-03-02T03:11:15;99827.50;;;9.36;100.00
47104;BME280;32853;52.164;5.400;2024-03-02T03:13:40;99844.44;;;9.61;100.00
47104;BME280;32853;52.164;5.400;2024-03-02T03:16:08;99830.22;;;9.67;100.00
47104;BME280;32853;52.164;5.400;2024-03-02T03:18:33;99825.31;;;9.61;100.00
47104;BME280;32853;52.164;5.400;2024-03-02T03:21:04;99830.16;;;9.69;100.00
47104;BME280;32853;52.164;5.400;2024-03-02T03:23:29;99832.84;;;9.67;100.00
47104;BME280;32853;52.164;5.400;2024-03-02T03:26:02;99833.41;;;9.56;100.00
47104;BME280;32853;52.164;5.400;2024-03-02T03:28:29;99839.84;;;9.49;100.00
47104;BME280;32853;52.164;5.400;2024-03-02T03:31:01;99842.16;;;9.55;100.00
47104;BME280;32853;52.164;5.400;2024-03-02T03:33:28;99845.53;;;9.57;100.00
47104;BME280;32853;52.164;5.400;2024-03-02T03:36:03;99848.94;;;9.42;100.00
47104;BME280;32853;52.164;5.400;2024-03-02T03:38:30;99850.19;;;9.51;100.00
47104;BME280;32853;52.164;5.400;2024-03-02T03:41:06;99844.84;;;9.54;100.00
47104;BME280;32853;52.164;5.400;2024-03-02T03:43:33;99855.88;;;9.59;100.00
47104;BME280;32853;52.164;5.400;2024-03-02T03:46:01;99852.59;;;9.55;100.00
47104;BME280;32853;52.164;5.400;2024-03-02T03:48:27;99861.34;;;9.54;100.00
47104;BME280;32853;52.164;5.400;2024-03-02T03:50:55;99865.78;;;9.52;100.00
47104;BME280;32853;52.164;5.400;2024-03-02T03:53:21;99866.41;;;9.40;100.00
47104;BME280;32853;52.164;5.400;2024-03-02T03:55:47;99865.03;;;9.50;100.00
47104;BME280;32853;52.164;5.400;2024-03-02T03:58:14;99867.25;;;9.58;100.00
47104;BME280;32853;52.164;5.400;2024-03-02T04:00:53;99857.94;;;9.70;100.00
47104;BME280;32853;52.164;5.400;2024-03-02T04:03:21;99856.16;;;9.70;100.00
47104;BME280;32853;52.164;5.400;2024-03-02T04:05:46;99857.28;;;9.82;100.00
47104;BME280;32853;52.164;5.400;2024-03-02T04:08:15;99857.63;;;9.76;100.00
47104;BME280;32853;52.164;5.400;2024-03-02T04:10:41;99864.28;;;9.81;100.00
47104;BME280;32853;52.164;5.400;2024-03-02T04:13:07;99858.88;;;9.69;100.00
47104;BME280;32853;52.164;5.400;2024-03-02T04:15:32;99874.16;;;9.59;100.00
47104;BME280;32853;52.164;5.400;2024-03-02T04:17:57;99870.22;;;9.68;100.00
47104;BME280;32853;52.164;5.400;2024-03-02T04:20:23;99877.31;;;9.66;100.00
47104;BME280;32853;52.164;5.400;2024-03-02T04:22:48;99877.66;;;9.75;100.00
47104;BME280;32853;52.164;5.400;2024-03-02T04:25:13;99877.13;;;9.69;100.00
47104;BME280;32853;52.164;5.400;2024-03-02T04:27:39;99872.22;;;9.80;100.00
47104;BME280;32853;52.164;5.400;2024-03-02T04:30:04;99880.22;;;9.77;100.00
47104;BME280;32853;52.164;5.400;2024-03-02T04:32:30;99888.22;;;9.56;100.00
47104;BME280;32853;52.164;5.400;2024-03-02T04:37:59;99880.13;;;9.78;100.00
47104;BME280;32853;52.164;5.400;2024-03-02T04:40:25;99886.75;;;9.68;100.00
47104;BME280;32853;52.164;5.400;2024-03-02T04:42:51;99883.28;;;9.50;100.00
47104;BME280;32853;52.164;5.400;2024-03-02T04:45:16;99883.75;;;9.76;100.00
47104;BME280;32853;52.164;5.400;2024-03-02T04:48:00;99890.78;;;9.74;100.00
47104;BME280;32853;52.164;5.400;2024-03-02T04:50:32;99900.09;;;9.62;100.00
47104;BME280;32853;52.164;5.400;2024-03-02T04:52:57;99889.56;;;9.81;100.00
47104;BME280;32853;52.164;5.400;2024-03-02T04:55:38;99901.22;;;9.91;100.00
47104;BME280;32853;52.164;5.400;2024-03-02T04:58:06;99908.50;;;9.84;100.00
47104;BME280;32853;52.164;5.400;2024-03-02T05:00:32;99900.00;;;9.98;100.00
47104;BME280;32853;52.164;5.400;2024-03-02T05:03:01;99899.81;;;10.01;100.00
47104;BME280;32853;52.164;5.400;2024-03-02T05:05:28;99897.31;;;9.82;100.00
47104;BME280;32853;52.164;5.400;2024-03-02T05:07:55;99904.84;;;9.88;100.00
47104;BME280;32853;52.164;5.400;2024-03-02T05:10:22;99904.06;;;9.86;100.00
47104;BME280;32853;52.164;5.400;2024-03-02T05:12:48;99915.97;;;9.75;100.00
47104;BME280;32853;52.164;5.400;2024-03-02T05:15:31;99928.44;;;9.87;100.00
47104;BME280;32853;52.164;5.400;2024-03-02T05:18:15;99915.06;;;9.76;100.00
47104;BME280;32853;52.164;5.400;2024-03-02T05:20:46;99917.97;;;9.87;100.00
47104;BME280;32853;52.164;5.400;2024-03-02T05:23:15;99918.00;;;9.70;100.00
47104;BME280;32853;52.164;5.400;2024-03-02T05:25:41;99917.06;;;9.88;100.00
47104;BME280;32853;52.164;5.400;2024-03-02T05:28:12;99918.81;;;9.87;100.00
47104;BME280;32853;52.164;5.400;2024-03-02T05:30:37;99918.50;;;9.94;100.00
47104;BME280;32853;52.164;5.400;2024-03-02T05:33:03;99921.19;;;9.75;100.00
47104;BME280;32853;52.164;5.400;2024-03-02T05:35:28;99920.44;;;9.73;100.00
47104;BME280;32853;52.164;5.400;2024-03-02T05:37:53;99919.50;;;9.74;100.00
47104;BME280;32853;52.164;5.400;2024-03-02T05:40:20;99919.22;;;9.80;100.00
47104;BME280;32853;52.164;5.400;2024-03-02T05:42:48;99914.69;;;9.66;100.00
47104;BME280;32853;52.164;5.400;2024-03-02T05:45:15;99912.81;;;9.85;100.00
47104;BME280;32853;52.164;5.400;2024-03-02T05:47:41;99915.00;;;9.77;100.00
47104;BME280;32853;52.164;5.400;2024-03-02T05:50:14;99916.75;;;9.77;100.00
47104;BME280;32853;52.164;5.400;2024-03-02T05:52:39;99917.53;;;9.79;100.00
47104;BME280;32853;52.164;5.400;2024-03-02T05:55:04;99924.59;;;9.59;100.00
47104;BME280;32853;52.164;5.400;2024-03-02T05:57:30;99930.44;;;9.65;100.00
47104;BME280;32853;52.164;5.400;2024-03-02T06:00:24;99929.56;;;9.64;100.00
47104;BME280;32853;52.164;5.400;2024-03-02T06:02:52;99928.91;;;9.43;100.00
47104;BME280;32853;52.164;5.400;2024-03-02T06:05:17;99928.28;;;9.55;100.00
47104;BME280;32853;52.164;5.400;2024-03-02T06:07:46;99940.88;;;9.47;100.00
47104;BME280;32853;52.164;5.400;2024-03-02T06:10:17;99941.56;;;9.51;100.00
47104;BME280;32853;52.164;5.400;2024-03-02T06:12:44;99945.72;;;9.55;100.00
47104;BME280;32853;52.164;5.400;2024-03-02T06:15:09;99948.38;;;9.36;100.00
47104;BME280;32853;52.164;5.400;2024-03-02T06:17:35;99949.16;;;9.55;100.00
47104;BME280;32853;52.164;5.400;2024-03-02T06:20:00;99950.00;;;9.73;100.00
47104;BME280;32853;52.164;5.400;2024-03-02T06:22:26;99954.69;;;9.49;100.00
47104;BME280;32853;52.164;5.400;2024-03-02T06:24:51;99960.00;;;9.65;100.00
47104;BME280;32853;52.164;5.400;2024-03-02T06:27:21;99962.06;;;9.76;100.00
47104;BME280;32853;52.164;5.400;2024-03-02T06:29:46;99972.25;;;9.63;100.00
47104;BME280;32853;52.164;5.400;2024-03-02T06:32:18;99965.91;;;9.69;100.00
47104;BME280;32853;52.164;5.400;2024-03-02T06:34:45;99966.75;;;9.69;100.00
47104;BME280;32853;52.164;5.400;2024-03-02T06:37:10;99972.44;;;9.77;100.00
47104;BME280;32853;52.164;5.400;2024-03-02T06:39:36;99973.75;;;9.69;100.00
47104;BME280;32853;52.164;5.400;2024-03-02T06:42:06;99971.34;;;9.81;100.00
47104;BME280;32853;52.164;5.400;2024-03-02T06:44:41;99978.09;;;9.51;100.00
47104;BME280;32853;52.164;5.400;2024-03-02T06:47:19;99982.78;;;9.61;100.00
47104;BME280;32853;52.164;5.400;2024-03-02T06:52:35;99977.50;;;9.80;100.00
47104;BME280;32853;52.164;5.400;2024-03-02T06:55:02;99970.97;;;9.72;100.00
47104;BME280;32853;52.164;5.400;2024-03-02T06:57:30;99970.50;;;9.64;100.00
47104;BME280;32853;52.164;5.400;2024-03-02T06:59:58;99973.06;;;9.65;100.00
47104;BME280;32853;52.164;5.400;2024-03-02T07:02:27;99980.94;;;9.64;100.00
47104;BME280;32853;52.164;5.400;2024-03-02T07:04:55;99973.63;;;9.53;100.00
47104;BME280;32853;52.164;5.400;2024-03-02T07:07:25;99969.81;;;9.43;100.00
47104;BME280;32853;52.164;5.400;2024-03-02T07:12:44;99981.88;;;9.63;100.00
47104;BME280;32853;52.164;5.400;2024-03-02T07:15:09;99975.16;;;9.40;100.00
47104;BME280;32853;52.164;5.400;2024-03-02T07:18:01;99973.72;;;9.51;100.00
47104;BME280;32853;52.164;5.400;2024-03-02T07:20:29;99981.47;;;9.53;100.00
47104;BME280;32853;52.164;5.400;2024-03-02T07:22:54;99977.31;;;9.49;100.00
47104;BME280;32853;52.164;5.400;2024-03-02T07:25:20;99980.34;;;9.58;100.00
47104;BME280;32853;52.164;5.400;2024-03-02T07:27:48;99984.03;;;9.54;100.00
47104;BME280;32853;52.164;5.400;2024-03-02T07:30:14;99986.44;;;9.40;100.00
47104;BME280;32853;52.164;5.400;2024-03-02T07:32:41;99984.63;;;9.59;100.00
47104;BME280;32853;52.164;5.400;2024-03-02T07:35:07;99990.38;;;9.49;100.00
47104;BME280;32853;52.164;5.400;2024-03-02T07:37:33;99992.63;;;9.74;100.00
47104;BME280;32853;52.164;5.400;2024-03-02T07:42:27;99994.63;;;9.69;100.00
47104;BME280;32853;52.164;5.400;2024-03-02T07:44:54;100002.13;;;9.75;100.00
47104;BME280;32853;52.164;5.400;2024-03-02T07:47:19;100001.22;;;9.58;100.00
47104;BME280;32853;52.164;5.400;2024-03-02T07:49:46;100004.16;;;9.70;100.00
47104;BME280;32853;52.164;5.400;2024-03-02T07:52:11;100007.31;;;9.76;100.00
47104;BME280;32853;52.164;5.400;2024-03-02T07:54:50;100005.28;;;9.64;100.00
47104;BME280;32853;52.164;5.400;2024-03-02T07:57:19;100010.78;;;9.77;100.00
47104;BME280;32853;52.164;5.400;2024-03-02T07:59:44;100008.75;;;9.82;100.00
47104;BME280;32853;52.164;5.400;2024-03-02T08:02:09;100011.91;;;9.88;100.00
47104;BME280;32853;52.164;5.400;2024-03-02T08:04:38;100011.91;;;9.88;100.00
47104;BME280;32853;52.164;5.400;2024-03-02T08:07:04;100021.00;;;9.99;100.00
47104;BME280;32853;52.164;5.400;2024-03-02T08:09:29;100026.81;;;9.69;100.00
47104;BME280;32853;52.164;5.400;2024-03-02T08:11:55;100024.19;;;9.69;100.00
47104;BME280;32853;52.164;5.400;2024-03-02T08:14:22;100025.94;;;9.86;100.00
47104;BME280;32853;52.164;5.400;2024-03-02T08:16:48;100028.09;;;9.95;100.00
47104;BME280;32853;52.164;5.400;2024-03-02T08:19:13;100025.88;;;9.70;100.00
47104;BME280;32853;52.164;5.400;2024-03-02T08:21:38;100022.34;;;9.71;100.00
47104;BME280;32853;52.164;5.400;2024-03-02T08:24:15;100028.56;;;9.86;100.00
47104;BME280;32853;52.164;5.400;2024-03-02T08:26:40;100032.03;;;9.86;100.00
47104;BME280;32853;52.164;5.400;2024-03-02T08:29:10;100023.94;;;10.08;100.00
47104;BME280;32853;52.164;5.400;2024-03-02T08:31:44;100025.19;;;10.01;100.00
47104;BME280;32853;52.164;5.400;2024-03-02T08:34:11;100023.34;;;10.21;100.00
47104;BME280;32853;52.164;5.400;2024-03-02T08:36:43;100033.94;;;10.17;100.00
47104;BME280;32853;52.164;5.400;2024-03-02T08:39:09;100023.66;;;10.14;100.00
47104;BME280;32853;52.164;5.400;2024-03-02T08:41:52;100020.91;;;10.35;100.00
47104;BME280;32853;52.164;5.400;2024-03-02T08:44:25;100024.28;;;10.37;100.00
47104;BME280;32853;52.164;5.400;2024-03-02T08:46:52;100022.13;;;10.28;100.00
47104;BME280;32853;52.164;5.400;2024-03-02T08:49:18;100026.69;;;10.24;100.00
47104;BME280;32853;52.164;5.400;2024-03-02T08:51:50;100029.19;;;10.43;100.00
47104;BME280;32853;52.164;5.400;2024-03-02T08:54:19;100018.50;;;10.63;100.00
47104;BME280;32853;52.164;5.400;2024-03-02T08:56:52;100032.69;;;10.59;100.00
47104;BME280;32853;52.164;5.400;2024-03-02T08:59:20;100020.06;;;10.67;100.00
47104;BME280;32853;52.164;5.400;2024-03-02T09:01:45;100027.41;;;10.76;100.00
47104;BME280;32853;52.164;5.400;2024-03-02T09:04:10;100022.94;;;10.79;100.00
47104;BME280;32853;52.164;5.400;2024-03-02T09:06:36;100027.75;;;10.86;100.00
47104;BME280;32853;52.164;5.400;2024-03-02T09:09:01;100026.09;;;11.01;99.31
47104;BME280;32853;52.164;5.400;2024-03-02T09:11:26;100039.31;;;10.82;98.63
47104;BME280;32853;52.164;5.400;2024-03-02T09:13:52;100030.88;;;10.77;98.79
47104;BME280;32853;52.164;5.400;2024-03-02T09:16:18;100028.88;;;10.98;100.00
47104;BME280;32853;52.164;5.400;2024-03-02T09:18:44;100039.69;;;11.23;96.86
47104;BME280;32853;52.164;5.400;2024-03-02T09:21:10;100033.84;;;11.02;93.90
47104;BME280;32853;52.164;5.400;2024-03-02T09:23:37;100032.16;;;11.17;93.29
47104;BME280;32853;52.164;5.400;2024-03-02T09:29:03;100028.34;;;11.54;89.03
47104;BME280;32853;52.164;5.400;2024-03-02T09:31:42;100036.09;;;11.56;88.08
47104;BME280;32853;52.164;5.400;2024-03-02T09:34:08;100036.91;;;11.72;87.23
47104;BME280;32853;52.164;5.400;2024-03-02T09:36:37;100026.88;;;11.80;82.63
47104;BME280;32853;52.164;5.400;2024-03-02T09:39:12;100033.59;;;12.00;82.27
47104;BME280;32853;52.164;5.400;2024-03-02T09:41:40;100042.06;;;11.74;80.10
47104;BME280;32853;52.164;5.400;2024-03-02T09:44:05;100045.66;;;12.03;80.64
47104;BME280;32853;52.164;5.400;2024-03-02T09:46:41;100052.88;;;12.13;77.33
47104;BME280;32853;52.164;5.400;2024-03-02T09:49:09;100041.19;;;12.19;75.92
47104;BME280;32853;52.164;5.400;2024-03-02T09:51:37;100043.16;;;11.85;71.24
47104;BME280;32853;52.164;5.400;2024-03-02T09:56:57;100048.38;;;12.01;70.82
47104;BME280;32853;52.164;5.400;2024-03-02T09:59:22;100042.53;;;12.26;70.17
47104;BME280;32853;52.164;5.400;2024-03-02T10:04:39;100062.66;;;12.26;68.13
47104;BME280;32853;52.164;5.400;2024-03-02T10:07:17;100048.19;;;12.18;68.01
47104;BME280;32853;52.164;5.400;2024-03-02T10:09:57;100057.47;;;12.10;70.16
47104;BME280;32853;52.164;5.400;2024-03-02T10:12:22;100038.59;;;12.33;68.16
47104;BME280;32853;52.164;5.400;2024-03-02T10:14:47;100044.50;;;12.51;67.64
47104;BME280;32853;52.164;5.400;2024-03-02T10:17:21;100053.69;;;12.44;67.32
47104;BME280;32853;52.164;5.400;2024-03-02T10:19:48;100042.56;;;12.55;66.22
47104;BME280;32853;52.164;5.400;2024-03-02T10:22:17;100041.34;;;12.89;67.61
47104;BME280;32853;52.164;5.400;2024-03-02T10:24:43;100040.50;;;12.88;64.56
47104;BME280;32853;52.164;5.400;2024-03-02T10:27:45;100044.22;;;13.13;65.04
47104;BME280;32853;52.164;5.400;2024-03-02T10:30:04;100043.66;;;12.93;65.02
47104;BME280;32853;52.164;5.400;2024-03-02T10:32:31;100041.94;;;13.06;63.11
47104;BME280;32853;52.164;5.400;2024-03-02T10:34:56;100036.53;;;13.09;63.62
47104;BME280;32853;52.164;5.400;2024-03-02T10:37:23;100040.16;;;13.07;61.48
47104;BME280;32853;52.164;5.400;2024-03-02T10:39:49;100038.31;;;13.23;62.24
47104;BME280;32853;52.164;5.400;2024-03-02T10:42:14;100024.69;;;13.31;62.20
47104;BME280;32853;52.164;5.400;2024-03-02T10:49:41;100022.84;;;13.19;60.77
47104;BME280;32853;52.164;5.400;2024-03-02T10:52:08;100007.97;;;13.18;61.43
47104;BME280;32853;52.164;5.400;2024-03-02T10:54:34;100013.88;;;13.35;62.83
47104;BME280;32853;52.164;5.400;2024-03-02T10:57:04;100007.50;;;13.66;62.28
47104;BME280;32853;52.164;5.400;2024-03-02T10:59:35;100004.69;;;13.82;60.86
47104;BME280;32853;52.164;5.400;2024-03-02T11:02:02;100002.75;;;13.72;60.32
47104;BME280;32853;52.164;5.400;2024-03-02T11:04:28;100006.25;;;13.85;59.37
47104;BME280;32853;52.164;5.400;2024-03-02T11:07:02;100000.00;;;14.00;57.71
47104;BME280;32853;52.164;5.400;2024-03-02T11:09:29;100007.03;;;14.12;57.08
47104;BME280;32853;52.164;5.400;2024-03-02T11:14:40;99997.66;;;13.95;57.92
47104;BME280;32853;52.164;5.400;2024-03-02T11:17:08;100008.28;;;14.07;57.29
47104;BME280;32853;52.164;5.400;2024-03-02T11:19:43;100018.00;;;13.66;56.74
47104;BME280;32853;52.164;5.400;2024-03-02T11:22:13;100017.44;;;13.88;56.84
47104;BME280;32853;52.164;5.400;2024-03-02T11:24:40;100014.81;;;14.01;55.88
47104;BME280;32853;52.164;5.400;2024-03-02T11:30:04;100013.03;;;14.14;54.65
47104;BME280;32853;52.164;5.400;2024-03-02T11:32:29;100015.25;;;14.20;54.86
47104;BME280;32853;52.164;5.400;2024-03-02T11:34:54;100010.00;;;14.59;55.89
47104;BME280;32853;52.164;5.400;2024-03-02T11:37:20;100007.78;;;14.40;54.68
47104;BME280;32853;52.164;5.400;2024-03-02T11:39:46;100013.97;;;14.39;53.21
47104;BME280;32853;52.164;5.400;2024-03-02T11:42:13;99998.94;;;14.15;53.17
47104;BME280;32853;52.164;5.400;2024-03-02T11:44:39;100000.84;;;14.26;52.74
47104;BME280;32853;52.164;5.400;2024-03-02T11:50:03;99989.72;;;14.48;52.28
47104;BME280;32853;52.164;5.400;2024-03-02T11:52:32;99986.84;;;14.76;52.27
47104;BME280;32853;52.164;5.400;2024-03-02T11:54:59;99982.84;;;15.07;52.32
47104;BME280;32853;52.164;5.400;2024-03-02T11:57:28;99985.78;;;15.39;52.48
47104;BME280;32853;52.164;5.400;2024-03-02T11:59:56;99984.66;;;15.31;51.54
47104;BME280;32853;52.164;5.400;2024-03-02T12:02:23;99991.16;;;15.14;50.00
47104;BME280;32853;52.164;5.400;2024-03-02T12:04:50;99986.16;;;14.98;49.24
47104;BME280;32853;52.164;5.400;2024-03-02T12:07:19;99978.81;;;15.15;49.96
47104;BME280;32853;52.164;5.400;2024-03-02T12:09:49;99725.78;;;13.87;49.31
47104;BME280;32853;52.164;5.400;2024-03-02T12:12:15;99981.44;;;15.38;48.19
47104;BME280;32853;52.164;5.400;2024-03-02T12:14:53;99966.19;;;15.07;48.94
47104;BME280;32853;52.164;5.400;2024-03-02T12:17:21;99966.59;;;15.37;49.29
47104;BME280;32853;52.164;5.400;2024-03-02T12:19:47;99961.06;;;15.53;48.57
47104;BME280;32853;52.164;5.400;2024-03-02T12:22:13;99847.03;;;14.44;48.28
47104;BME280;32853;52.164;5.400;2024-03-02T12:24:38;99956.78;;;15.39;48.73
47104;BME280;32853;52.164;5.400;2024-03-02T12:27:04;99966.13;;;15.32;48.65
47104;BME280;32853;52.164;5.400;2024-03-02T12:29:30;99959.78;;;15.11;49.07
47104;BME280;32853;52.164;5.400;2024-03-02T12:31:55;99951.31;;;15.19;49.15
47104;BME280;32853;52.164;5.400;2024-03-02T12:34:21;99947.72;;;15.44;50.02
47104;BME280;32853;52.164;5.400;2024-03-02T12:36:46;99938.03;;;15.79;48.84
47104;BME280;32853;52.164;5.400;2024-03-02T12:39:18;99960.13;;;15.89;49.22
47104;BME280;32853;52.164;5.400;2024-03-02T12:41:46;99945.19;;;15.66;50.11
47104;BME280;32853;52.164;5.400;2024-03-02T12:44:14;99946.50;;;15.72;50.78
47104;BME280;32853;52.164;5.400;2024-03-02T12:46:51;99949.38;;;15.68;50.60
47104;BME280;32853;52.164;5.400;2024-03-02T12:49:21;99935.31;;;16.03;50.20
47104;BME280;32853;52.164;5.400;2024-03-02T12:51:51;99935.88;;;15.84;50.82
47104;BME280;32853;52.164;5.400;2024-03-02T12:54:21;99918.28;;;16.07;50.75
47104;BME280;32853;52.164;5.400;2024-03-02T12:56:49;99923.34;;;15.99;50.56
47104;BME280;32853;52.164;5.400;2024-03-02T12:59:19;99917.53;;;15.48;50.66
47104;BME280;32853;52.164;5.400;2024-03-02T13:02:03;99911.31;;;15.84;50.33
47104;BME280;32853;52.164;5.400;2024-03-02T13:04:30;99916.50;;;15.85;50.09
47104;BME280;32853;52.164;5.400;2024-03-02T13:06:59;99918.31;;;15.61;49.47
47104;BME280;32853;52.164;5.400;2024-03-02T13:09:37;99922.59;;;15.86;50.49
47104;BME280;32853;52.164;5.400;2024-03-02T13:12:10;99907.78;;;16.30;49.57
47104;BME280;32853;52.164;5.400;2024-03-02T13:17:05;99912.38;;;15.81;49.95
47104;BME280;32853;52.164;5.400;2024-03-02T13:19:32;99924.63;;;15.93;49.89
47104;BME280;32853;52.164;5.400;2024-03-02T13:21:58;99934.00;;;15.86;49.97
47104;BME280;32853;52.164;5.400;2024-03-02T13:24:29;99923.47;;;15.97;49.82
47104;BME280;32853;52.164;5.400;2024-03-02T13:26:54;99921.41;;;16.01;50.84
47104;BME280;32853;52.164;5.400;2024-03-02T13:31:56;99925.59;;;16.04;50.32
47104;BME280;32853;52.164;5.400;2024-03-02T13:34:24;99910.28;;;16.09;50.22
47104;BME280;32853;52.164;5.400;2024-03-02T13:36:49;99912.56;;;16.13;49.39
47104;BME280;32853;52.164;5.400;2024-03-02T13:39:14;99911.13;;;16.54;50.19
47104;BME280;32853;52.164;5.400;2024-03-02T13:41:40;99917.00;;;16.24;49.96
47104;BME280;32853;52.164;5.400;2024-03-02T13:44:05;99919.16;;;15.96;50.77
47104;BME280;32853;52.164;5.400;2024-03-02T13:46:31;99915.75;;;15.94;51.17
47104;BME280;32853;52.164;5.400;2024-03-02T13:52:00;99911.88;;;15.65;50.78
47104;BME280;32853;52.164;5.400;2024-03-02T13:54:28;99907.50;;;15.99;50.31
47104;BME280;32853;52.164;5.400;2024-03-02T13:59:49;99899.22;;;15.92;51.16